Diekirch, Luxembourg
Current Conditions -  °F | °C
As of 1:50 PM on Friday 19 Dec 2014 (Local Time) from ELLX Reporting Station
Moderate Rain Moderate Rain  
Wind Chill: 42°   Ceiling: 700
Heat Index: 48°   Visibility: 1.8mi
Dew Point: 48°   Wind: 17mph
Humidity: 100%   Direction: 230°SW
Pressure: 29.97"   Gusts: NA
Location:  49.87°N, 6.16°E
Report Text: ELLX 191250Z 23015KT 210V270 3000 RA BR SCT005 BKN007 09/09 Q1015 BECMG 24020G30KT RA
Loading
Personal Weather Stations






























Interactive Weather Map New forecast layout! Learn more

10-Day Weather Forecast

Advertisements
Track Severe Weather on mobile